Latest Weather Observations for Coldstream

IDV60801

Issued at 11:02 am EST Monday 25 May 2015 (issued every 30 minutes, with the page automatically refreshed every 10 minutes)

About weather observations | Map of weather stations | Latest weather observations for VIC | Other Formats
Station Details ID: 086383 Name: COLDSTREAM Lat: -37.72 Lon: 145.41 Height: 83.0 m
Data from the previous 72 hours. | See also: Recent months at Coldstream
Date/Time
EST
Temp
°C
App
Temp
°C
Dew
Point
Rel
Hum
%
Delta-T
°C
Wind Press
QNH
hPa
Press
MSL
hPa
Rain
since 9 am
mm
Dir
 
Spd
km/h
Gust
km/h
Spd
kts
Gust
kts
25/11:00am 12.2 11.6 7.3 72 2.4 CALM 0 0 0 0 1032.1 1032.2 0.0
25/10:30am 10.8 9.9 6.2 73 2.1 CALM 0 0 0 0 1031.9 1032.0 0.0
25/10:00am 9.6 7.5 5.8 77 1.7 SE 6 7 3 4 1032.0 1032.1 0.0
25/09:30am 8.8 6.0 5.2 78 1.6 SE 9 11 5 6 1032.1 1032.2 0.0
25/09:00am 7.4 3.8 5.2 86 1.0 SE 13 15 7 8 1032.1 1032.2 0.0
25/08:30am 6.2 5.1 5.3 94 0.4 CALM 0 0 0 0 1031.8 1031.9 0.0
25/08:00am 5.4 4.2 4.5 94 0.4 CALM 0 0 0 0 1031.6 1031.7 0.0
25/07:30am 5.0 3.6 3.8 92 0.5 CALM 0 0 0 0 1031.8 1031.9 0.0
25/07:00am 5.1 3.7 3.8 91 0.5 CALM 0 0 0 0 1031.9 1032.0 0.0
25/06:30am 5.9 4.7 4.4 90 0.6 CALM 0 2 0 1 1031.4 1031.5 0.0
25/06:00am 5.7 4.0 4.0 89 0.7 SE 2 7 1 4 1031.1 1031.2 0.0
25/05:30am 5.5 3.5 4.2 91 0.6 SSE 4 11 2 6 1030.5 1030.6 0.0
25/05:00am 5.3 3.3 4.3 93 0.4 SSE 4 11 2 6 1030.2 1030.3 0.0
25/04:30am 5.4 4.2 4.5 94 0.4 CALM 0 0 0 0 1030.3 1030.4 0.0
25/04:00am 5.6 2.8 5.0 96 0.3 SE 9 13 5 7 1030.5 1030.6 0.0
25/03:30am 5.2 2.9 4.6 96 0.3 SSE 6 7 3 4 1030.6 1030.7 0.0
25/03:00am 5.0 3.0 4.6 97 0.2 SSE 4 9 2 5 1030.7 1030.8 0.0
25/02:30am 4.5 2.8 4.2 98 0.1 SSE 2 6 1 3 1030.8 1030.9 0.0
25/02:00am 3.6 1.8 3.2 97 0.2 S 2 7 1 4 1031.0 1031.1 0.0
25/01:30am 3.7 2.3 3.3 97 0.2 CALM 0 0 0 0 1030.8 1030.9 0.0
25/01:00am 5.0 2.7 4.9 99 0.0 S 6 11 3 6 1031.0 1031.1 0.0
25/12:30am 3.9 2.5 3.6 98 0.1 CALM 0 0 0 0 1031.2 1031.3 0.0
25/12:00am 4.1 2.0 3.8 98 0.1 S 4 9 2 5 1031.4 1031.5 0.0
 
Date/Time
EST
Temp
°C
App
Temp
°C
Dew
Point
Rel
Hum
%
Delta-T
°C
Wind Press
QNH
hPa
Press
MSL
hPa
Rain
since 9 am
mm
Dir
 
Spd
km/h
Gust
km/h
Spd
kts
Gust
kts
24/11:30pm 3.9 2.5 3.5 97 0.2 CALM 0 0 0 0 1031.5 1031.6 0.0
24/11:00pm 3.1 1.2 2.7 97 0.2 SE 2 7 1 4 1031.3 1031.4 0.0
24/10:30pm 3.2 1.7 2.8 97 0.2 CALM 0 6 0 3 1031.4 1031.5 0.0
24/10:00pm 2.9 0.9 2.2 95 0.3 S 2 7 1 4 1031.4 1031.5 0.0
24/09:30pm 3.9 2.5 3.3 96 0.2 CALM 0 6 0 3 1031.4 1031.5 0.0
24/09:00pm 4.5 2.8 3.8 95 0.3 S 2 7 1 4 1031.5 1031.6 0.0
24/08:30pm 5.4 4.2 4.8 96 0.3 CALM 0 0 0 0 1031.2 1031.3 0.0
24/08:00pm 5.1 3.9 4.4 95 0.3 CALM 0 0 0 0 1030.9 1031.0 0.0
24/07:30pm 4.8 3.4 3.8 93 0.4 CALM 0 6 0 3 1030.8 1030.9 0.0
24/07:00pm 6.0 4.8 4.8 92 0.5 CALM 0 0 0 0 1030.6 1030.7 0.0
24/06:30pm 7.5 6.6 6.1 91 0.6 CALM 0 0 0 0 1030.5 1030.6 0.0
24/06:00pm 8.3 7.5 6.6 89 0.8 CALM 0 6 0 3 1030.3 1030.4 0.0
24/05:30pm 8.6 7.7 5.9 83 1.2 CALM 0 4 0 2 1030.1 1030.2 0.0
24/05:00pm 10.8 10.0 6.6 75 2.0 CALM 0 0 0 0 1030.1 1030.2 0.0
24/04:30pm 13.5 12.3 8.1 70 2.7 ENE 4 9 2 5 1030.0 1030.1 0.0
24/04:00pm 14.8 14.4 8.1 64 3.3 CALM 0 0 0 0 1029.9 1030.0 0.0
24/03:30pm 15.1 13.4 6.1 55 4.3 ESE 4 6 2 3 1029.6 1029.7 0.0
24/03:00pm 15.3 14.1 6.3 55 4.3 ENE 2 6 1 3 1029.5 1029.6 0.0
24/02:30pm 15.2 14.4 6.5 56 4.2 CALM 0 0 0 0 1029.4 1029.5 0.0
24/02:00pm 14.6 13.9 6.9 60 3.7 CALM 0 6 0 3 1029.5 1029.6 0.0
24/01:30pm 14.1 12.3 7.2 63 3.4 N 6 9 3 5 1029.8 1029.9 0.0
24/01:00pm 13.2 10.9 5.6 60 3.6 N 7 9 4 5 1030.1 1030.2 0.0
24/12:30pm 11.7 10.0 6.0 68 2.7 N 4 9 2 5 1030.6 1030.7 0.0
24/12:00pm 10.4 8.6 5.6 72 2.2 N 4 6 2 3 1031.1 1031.2 0.0
24/11:30am 9.3 8.2 4.9 74 2.0 CALM 0 4 0 2 1031.7 1031.8 0.0
24/11:00am 8.0 6.5 4.8 80 1.4 NW 2 7 1 4 1032.3 1032.4 0.0
24/10:30am 6.7 4.3 4.4 85 1.0 N 6 9 3 5 1032.5 1032.6 0.0
24/10:00am 5.0 3.2 3.7 91 0.5 W 2 9 1 5 1032.5 1032.6 0.0
24/09:30am 4.2 1.7 3.9 98 0.1 NNW 6 7 3 4 1032.2 1032.3 0.0
24/09:00am 3.2 1.7 2.9 98 0.1 CALM 0 0 0 0 1032.2 1032.3 0.0
24/08:30am 3.4 1.2 3.1 98 0.1 ENE 4 9 2 5 1032.0 1032.1 0.0
24/08:00am 2.4 0.3 2.0 97 0.2 E 2 6 1 3 1031.8 1031.9 0.0
24/07:30am 2.1 0.3 1.5 96 0.2 CALM 0 0 0 0 1031.6 1031.7 0.0
24/07:00am 2.7 0.3 2.1 96 0.2 SSE 4 7 2 4 1031.4 1031.5 0.0
24/06:30am 3.3 -0.3 2.7 96 0.2 SE 11 13 6 7 1031.2 1031.3 0.0
24/06:00am 3.3 0.4 2.7 96 0.2 ESE 7 9 4 5 1031.0 1031.1 0.0
24/05:30am 3.0 0.2 2.3 95 0.3 S 6 7 3 4 1031.0 1031.1 0.0
24/05:00am 3.5 0.8 2.5 93 0.4 SSE 6 7 3 4 1030.9 1031.0 0.0
24/04:30am 4.2 1.6 3.2 93 0.4 SSE 6 9 3 5 1030.6 1030.7 0.0
24/04:00am 4.7 2.3 4.4 98 0.1 ESE 6 9 3 5 1030.4 1030.5 0.0
24/03:30am 5.4 4.3 5.3 99 0.0 CALM 0 0 0 0 1030.5 1030.6 0.0
24/03:00am 5.1 3.6 5.0 99 0.0 S 2 6 1 3 1030.8 1030.9 0.0
24/02:30am 5.0 3.9 4.9 99 0.0 CALM 0 0 0 0 1031.0 1031.1 0.0
24/02:00am 4.5 3.3 4.4 99 0.0 CALM 0 0 0 0 1031.2 1031.3 0.0
24/01:30am 4.1 2.8 4.0 99 0.0 CALM 0 0 0 0 1031.3 1031.4 0.0
24/01:00am 3.4 2.0 3.3 99 0.0 CALM 0 6 0 3 1031.5 1031.6 0.0
24/12:30am 1.9 0.2 1.6 98 0.1 CALM 0 0 0 0 1031.6 1031.7 0.0
24/12:00am 1.0 -0.9 0.7 98 0.1 CALM 0 0 0 0 1031.7 1031.8 0.0
 
Date/Time
EST
Temp
°C
App
Temp
°C
Dew
Point
Rel
Hum
%
Delta-T
°C
Wind Press
QNH
hPa
Press
MSL
hPa
Rain
since 9 am
mm
Dir
 
Spd
km/h
Gust
km/h
Spd
kts
Gust
kts
23/11:30pm 0.9 -1.0 0.5 97 0.1 CALM 0 0 0 0 1031.8 1031.9 0.0
23/11:00pm 1.3 -0.5 0.9 97 0.1 CALM 0 0 0 0 1031.8 1031.9 0.0
23/10:30pm 0.8 -1.1 0.4 97 0.1 CALM 0 6 0 3 1031.9 1032.0 0.0
23/10:00pm 1.2 -0.7 0.8 97 0.1 CALM 0 0 0 0 1032.1 1032.2 0.0
23/09:30pm 1.6 -0.2 1.0 96 0.2 CALM 0 0 0 0 1032.3 1032.4 0.0
23/09:00pm 1.8 -0.4 1.1 95 0.3 S 2 7 1 4 1032.2 1032.3 0.0
23/08:30pm 2.9 1.3 2.2 95 0.3 CALM 0 0 0 0 1032.0 1032.1 0.0
23/08:00pm 3.6 2.0 2.7 94 0.4 CALM 0 0 0 0 1031.9 1032.0 0.0
23/07:30pm 4.5 3.1 3.3 92 0.5 CALM 0 0 0 0 1031.7 1031.8 0.0
23/07:00pm 5.0 3.6 3.3 89 0.7 CALM 0 0 0 0 1031.5 1031.6 0.0
23/06:30pm 6.5 4.1 4.2 85 1.0 S 6 9 3 5 1031.4 1031.5 0.0
23/06:00pm 8.8 6.5 5.7 81 1.4 S 7 11 4 6 1031.3 1031.4 0.0
23/05:30pm 9.7 7.4 5.9 77 1.8 SSE 7 11 4 6 1031.1 1031.2 0.0
23/05:00pm 11.0 8.8 6.2 72 2.2 SSE 7 13 4 7 1031.0 1031.1 0.0
23/04:30pm 11.9 9.3 6.2 68 2.7 SE 9 13 5 7 1031.1 1031.2 0.0
23/04:00pm 13.4 11.3 6.5 63 3.3 SSE 7 13 4 7 1031.3 1031.4 0.0
23/03:30pm 13.9 11.3 6.3 60 3.7 SSW 9 15 5 8 1031.0 1031.1 0.0
23/03:00pm 14.1 11.6 6.7 61 3.6 S 9 13 5 7 1030.9 1031.0 0.0
23/02:30pm 13.9 12.2 5.8 58 3.9 ESE 4 17 2 9 1031.0 1031.1 0.0
23/02:00pm 13.7 11.0 5.6 58 3.8 ESE 9 15 5 8 1031.1 1031.2 0.0
23/01:30pm 13.4 10.7 5.8 60 3.6 SSE 9 17 5 9 1031.4 1031.5 0.0
23/01:00pm 13.1 10.4 5.8 61 3.4 SSE 9 15 5 8 1031.6 1031.7 0.0
23/12:30pm 12.7 10.0 5.4 61 3.4 SE 9 20 5 11 1032.0 1032.1 0.0
23/12:00pm 12.3 9.6 5.5 63 3.1 SE 9 15 5 8 1032.5 1032.6 0.0
23/11:30am 12.6 11.4 6.6 67 2.9 N 2 9 1 5 1032.9 1033.0 0.0
23/11:00am 11.7 10.0 5.8 67 2.7 SSE 4 11 2 6 1033.3 1033.4 0.0
23/10:30am 11.4 9.2 5.3 66 2.8 ESE 6 9 3 5 1033.4 1033.5 0.0
23/10:00am 10.7 8.0 5.5 70 2.4 SE 9 13 5 7 1033.4 1033.5 0.0
23/09:30am 10.5 8.2 5.5 71 2.3 E 7 9 4 5 1033.5 1033.6 0.0
23/09:00am 10.1 7.8 5.9 75 1.9 ESE 7 9 4 5 1033.5 1033.6 0.0
23/08:30am 9.8 7.6 5.4 74 2.0 SSW 6 9 3 5 1033.2 1033.3 0.0
23/08:00am 9.2 8.1 5.2 76 1.8 CALM 0 0 0 0 1032.9 1033.0 0.0
23/07:30am 9.2 6.7 4.6 73 2.1 SSE 7 11 4 6 1032.7 1032.8 0.0
23/07:00am 9.3 7.8 4.9 74 2.0 S 2 6 1 3 1032.6 1032.7 0.0
23/06:30am 9.2 6.7 4.8 74 2.0 S 7 13 4 7 1032.3 1032.4 0.0
23/06:00am 9.4 6.4 4.2 70 2.3 S 9 15 5 8 1032.0 1032.1 0.0
23/05:30am 9.2 6.2 4.2 71 2.2 SSE 9 13 5 7 1031.8 1031.9 0.0
23/05:00am 9.7 7.3 5.1 73 2.1 SSE 7 15 4 8 1031.7 1031.8 0.0
23/04:30am 9.7 6.6 5.5 75 1.9 SE 11 15 6 8 1031.6 1031.7 0.0
23/04:00am 9.4 8.2 6.3 81 1.4 S 2 7 1 4 1031.5 1031.6 0.0
23/03:30am 9.2 8.4 6.5 83 1.3 CALM 0 2 0 1 1031.4 1031.5 0.0
23/03:00am 9.3 8.5 6.7 84 1.2 CALM 0 0 0 0 1031.5 1031.6 0.0
23/02:30am 9.3 8.5 6.7 84 1.2 CALM 0 2 0 1 1031.7 1031.8 0.0
23/02:00am 9.5 8.7 6.4 81 1.4 CALM 0 7 0 4 1031.8 1031.9 0.0
23/01:30am 9.5 8.7 6.6 82 1.4 CALM 0 0 0 0 1031.7 1031.8 0.0
23/01:00am 9.7 8.6 6.8 82 1.4 SSW 2 6 1 3 1031.8 1031.9 0.0
23/12:30am 9.7 9.0 7.0 83 1.3 CALM 0 0 0 0 1032.1 1032.2 0.0
23/12:00am 9.7 8.6 7.0 83 1.3 SW 2 7 1 4 1032.2 1032.3 0.0
 
Date/Time
EST
Temp
°C
App
Temp
°C
Dew
Point
Rel
Hum
%
Delta-T
°C
Wind Press
QNH
hPa
Press
MSL
hPa
Rain
since 9 am
mm
Dir
 
Spd
km/h
Gust
km/h
Spd
kts
Gust
kts
22/11:30pm 9.6 8.9 6.9 83 1.3 CALM 0 0 0 0 1032.1 1032.2 0.0
22/11:00pm 9.8 9.0 6.5 80 1.5 CALM 0 0 0 0 1031.9 1032.0 0.0
22/10:30pm 10.1 8.4 6.1 76 1.9 S 4 7 2 4 1032.0 1032.1 0.0
22/10:00pm 10.3 9.3 5.7 73 2.1 CALM 0 6 0 3 1032.0 1032.1 0.0
22/09:30pm 10.5 8.2 5.5 71 2.3 S 7 13 4 7 1031.9 1032.0 0.0
22/09:00pm 10.6 7.7 4.9 68 2.6 S 9 17 5 9 1031.9 1032.0 0.0
22/08:30pm 10.6 8.2 5.4 70 2.4 SSE 7 13 4 7 1031.7 1031.8 0.0
22/08:00pm 10.8 7.3 5.3 69 2.5 S 13 19 7 10 1031.5 1031.6 0.0
22/07:30pm 10.6 7.5 5.4 70 2.4 S 11 24 6 13 1031.3 1031.4 0.0
22/07:00pm 10.3 8.1 6.1 75 1.9 S 7 13 4 7 1031.0 1031.1 0.0
22/06:30pm 10.5 8.0 6.6 77 1.8 SSW 9 15 5 8 1030.7 1030.8 0.0
22/06:00pm 10.6 8.2 6.9 78 1.7 S 9 13 5 7 1030.4 1030.5 0.0
22/05:30pm 10.6 7.7 6.4 75 2.0 S 11 17 6 9 1030.2 1030.3 0.0
22/05:00pm 11.4 8.5 6.3 71 2.4 S 11 20 6 11 1030.1 1030.2 0.0
22/04:30pm 11.9 7.9 6.6 70 2.5 S 17 26 9 14 1030.0 1030.1 0.0
22/04:00pm 12.7 9.2 7.4 70 2.6 S 15 24 8 13 1029.8 1029.9 0.0
22/03:30pm 12.6 8.8 7.5 71 2.5 S 17 24 9 13 1029.7 1029.8 0.0
22/03:00pm 12.5 9.3 8.4 76 2.0 S 15 24 8 13 1029.4 1029.5 0.0
22/02:30pm 12.7 8.9 7.6 71 2.5 S 17 24 9 13 1029.1 1029.2 0.0
22/02:00pm 13.3 9.4 6.9 65 3.1 S 17 26 9 14 1028.8 1028.9 0.0
22/01:30pm 13.7 10.3 7.5 66 3.1 S 15 20 8 11 1028.8 1028.9 0.0
22/01:00pm 14.2 11.2 7.5 64 3.3 S 13 22 7 12 1028.7 1028.8 0.0
22/12:30pm 13.7 10.0 6.3 61 3.6 SSE 15 20 8 11 1028.8 1028.9 0.0
22/12:00pm 14.0 10.2 5.6 57 4.0 SSE 15 26 8 14 1029.0 1029.1 0.0
22/11:30am 14.4 11.5 6.3 58 3.9 SE 11 17 6 9 1029.2 1029.3 0.0

Other Formats:

Comma delimited format used in spreadsheet applications
http://www.bom.gov.au/fwo/IDV60801/IDV60801.94864.axf

JavaScript Object Notation format (JSON) in row-major order
http://www.bom.gov.au/fwo/IDV60801/IDV60801.94864.json